Maldives Meteorological Service

SYNOP

Station Code SYNOP
43555
AAXX 23034 43555 41457 72713 10262 20255 30099 40101 78082 8497/ 333 20256 58000 82816 82917 87362 555 10618=
43533
AAXX 23034 43533 41458 82912 10254 20251 30110 40112 79598 869// 333 20239 58008 84817 82918 555 10544=
43577
AAXX 23034 43577 41462 72306 10283 20258 30109 40111 72162 8397/ 333 20243 58007 82817 81918 87362 555 10370=
43588
AAXX 23034 43588 42462 72305 10290 20250 30108 40109 82238 333 20261 59002 82818 87276 555 10536=
43599
AAXX 23034 43599 41460 72006 10290 20255 30109 40111 70282 81232 333 20261 59005 81818 87076 555 10510=
Last Updated : 2017-05-23 08:00:12